sensor_id;sensor_type;location;lat;lon;timestamp;temperature;humidity
77305;DHT22;66364;52.622;7.746;2023-04-25T00:01:51;7.50;99.90
77305;DHT22;66364;52.622;7.746;2023-04-25T00:03:53;7.10;99.90
77305;DHT22;66364;52.622;7.746;2023-04-25T00:05:54;7.50;99.90
77305;DHT22;66364;52.622;7.746;2023-04-25T00:07:57;7.40;99.90
77305;DHT22;66364;52.622;7.746;2023-04-25T00:09:58;7.50;99.90
77305;DHT22;66364;52.622;7.746;2023-04-25T00:12:00;7.30;99.90
77305;DHT22;66364;52.622;7.746;2023-04-25T00:14:01;7.60;99.90
77305;DHT22;66364;52.622;7.746;2023-04-25T00:16:03;7.40;99.90
77305;DHT22;66364;52.622;7.746;2023-04-25T00:18:04;7.40;99.90
77305;DHT22;66364;52.622;7.746;2023-04-25T00:20:06;7.20;99.90
77305;DHT22;66364;52.622;7.746;2023-04-25T00:22:07;7.30;99.90
77305;DHT22;66364;52.622;7.746;2023-04-25T00:24:09;7.50;99.90
77305;DHT22;66364;52.622;7.746;2023-04-25T00:26:10;7.00;99.90
77305;DHT22;66364;52.622;7.746;2023-04-25T00:28:12;7.20;99.90
77305;DHT22;66364;52.622;7.746;2023-04-25T00:30:14;7.50;99.90
77305;DHT22;66364;52.622;7.746;2023-04-25T00:32:16;7.20;99.90
77305;DHT22;66364;52.622;7.746;2023-04-25T00:34:17;7.10;99.90
77305;DHT22;66364;52.622;7.746;2023-04-25T00:36:18;7.20;99.90
77305;DHT22;66364;52.622;7.746;2023-04-25T00:38:20;7.20;99.90
77305;DHT22;66364;52.622;7.746;2023-04-25T00:40:21;7.10;99.90
77305;DHT22;66364;52.622;7.746;2023-04-25T00:42:24;7.00;99.90
77305;DHT22;66364;52.622;7.746;2023-04-25T00:44:27;7.20;99.90
77305;DHT22;66364;52.622;7.746;2023-04-25T00:46:31;6.90;99.90
77305;DHT22;66364;52.622;7.746;2023-04-25T00:48:32;7.20;99.90
77305;DHT22;66364;52.622;7.746;2023-04-25T00:50:36;7.20;99.90
77305;DHT22;66364;52.622;7.746;2023-04-25T00:52:40;7.00;99.90
77305;DHT22;66364;52.622;7.746;2023-04-25T00:54:42;6.70;99.90
77305;DHT22;66364;52.622;7.746;2023-04-25T00:56:49;6.90;99.90
77305;DHT22;66364;52.622;7.746;2023-04-25T00:58:53;6.40;99.90
77305;DHT22;66364;52.622;7.746;2023-04-25T01:00:55;6.80;99.90
77305;DHT22;66364;52.622;7.746;2023-04-25T01:02:56;7.20;99.90
77305;DHT22;66364;52.622;7.746;2023-04-25T01:04:59;6.80;99.90
77305;DHT22;66364;52.622;7.746;2023-04-25T01:07:00;6.90;99.90
77305;DHT22;66364;52.622;7.746;2023-04-25T01:09:02;7.00;99.90
77305;DHT22;66364;52.622;7.746;2023-04-25T01:11:05;7.20;99.90
77305;DHT22;66364;52.622;7.746;2023-04-25T01:13:07;6.70;99.90
77305;DHT22;66364;52.622;7.746;2023-04-25T01:15:08;7.20;99.90
77305;DHT22;66364;52.622;7.746;2023-04-25T01:17:10;7.20;99.90
77305;DHT22;66364;52.622;7.746;2023-04-25T01:19:11;7.00;99.90
77305;DHT22;66364;52.622;7.746;2023-04-25T01:21:13;7.10;99.90
77305;DHT22;66364;52.622;7.746;2023-04-25T01:23:14;7.20;99.90
77305;DHT22;66364;52.622;7.746;2023-04-25T01:25:16;7.10;99.90
77305;DHT22;66364;52.622;7.746;2023-04-25T01:27:18;6.90;99.90
77305;DHT22;66364;52.622;7.746;2023-04-25T01:29:20;7.10;99.90
77305;DHT22;66364;52.622;7.746;2023-04-25T01:31:21;7.10;99.90
77305;DHT22;66364;52.622;7.746;2023-04-25T01:33:24;7.10;99.90
77305;DHT22;66364;52.622;7.746;2023-04-25T01:35:25;7.20;99.90
77305;DHT22;66364;52.622;7.746;2023-04-25T01:37:27;7.20;99.90
77305;DHT22;66364;52.622;7.746;2023-04-25T01:39:29;6.80;99.90
77305;DHT22;66364;52.622;7.746;2023-04-25T01:41:30;7.10;99.90
77305;DHT22;66364;52.622;7.746;2023-04-25T01:43:33;6.70;99.90
77305;DHT22;66364;52.622;7.746;2023-04-25T01:45:34;6.70;99.90
77305;DHT22;66364;52.622;7.746;2023-04-25T01:47:35;6.70;99.90
77305;DHT22;66364;52.622;7.746;2023-04-25T01:49:37;6.70;99.90
77305;DHT22;66364;52.622;7.746;2023-04-25T01:51:39;6.70;99.90
77305;DHT22;66364;52.622;7.746;2023-04-25T01:53:41;7.00;99.90
77305;DHT22;66364;52.622;7.746;2023-04-25T01:55:43;6.60;99.90
77305;DHT22;66364;52.622;7.746;2023-04-25T01:57:44;6.90;99.90
77305;DHT22;66364;52.622;7.746;2023-04-25T01:59:45;6.70;99.90
77305;DHT22;66364;52.622;7.746;2023-04-25T02:01:47;6.70;99.90
77305;DHT22;66364;52.622;7.746;2023-04-25T02:03:49;6.80;99.90
77305;DHT22;66364;52.622;7.746;2023-04-25T02:05:51;6.90;99.90
77305;DHT22;66364;52.622;7.746;2023-04-25T02:07:52;6.60;99.90
77305;DHT22;66364;52.622;7.746;2023-04-25T02:09:53;6.70;99.90
77305;DHT22;66364;52.622;7.746;2023-04-25T02:11:54;6.90;99.90
77305;DHT22;66364;52.622;7.746;2023-04-25T02:14:15;6.60;99.90
77305;DHT22;66364;52.622;7.746;2023-04-25T02:16:16;6.20;99.90
77305;DHT22;66364;52.622;7.746;2023-04-25T02:18:18;7.00;99.90
77305;DHT22;66364;52.622;7.746;2023-04-25T02:20:22;6.70;99.90
77305;DHT22;66364;52.622;7.746;2023-04-25T02:22:23;6.70;99.90
77305;DHT22;66364;52.622;7.746;2023-04-25T02:24:24;6.70;99.90
77305;DHT22;66364;52.622;7.746;2023-04-25T02:26:26;6.40;99.90
77305;DHT22;66364;52.622;7.746;2023-04-25T02:28:27;6.50;99.90
77305;DHT22;66364;52.622;7.746;2023-04-25T02:30:28;6.50;99.90
77305;DHT22;66364;52.622;7.746;2023-04-25T02:32:30;6.40;99.90
77305;DHT22;66364;52.622;7.746;2023-04-25T02:34:31;6.60;99.90
77305;DHT22;66364;52.622;7.746;2023-04-25T02:36:32;6.60;99.90
77305;DHT22;66364;52.622;7.746;2023-04-25T02:38:34;6.30;99.90
77305;DHT22;66364;52.622;7.746;2023-04-25T02:40:36;6.50;99.90
77305;DHT22;66364;52.622;7.746;2023-04-25T02:42:37;6.60;99.90
77305;DHT22;66364;52.622;7.746;2023-04-25T02:44:38;6.30;99.90
77305;DHT22;66364;52.622;7.746;2023-04-25T02:46:39;6.50;99.90
77305;DHT22;66364;52.622;7.746;2023-04-25T02:48:40;6.50;99.90
77305;DHT22;66364;52.622;7.746;2023-04-25T02:50:43;6.30;99.90
77305;DHT22;66364;52.622;7.746;2023-04-25T02:52:45;6.60;99.90
77305;DHT22;66364;52.622;7.746;2023-04-25T02:54:46;6.30;99.90
77305;DHT22;66364;52.622;7.746;2023-04-25T02:56:47;6.50;99.90
77305;DHT22;66364;52.622;7.746;2023-04-25T02:58:48;6.40;99.90
77305;DHT22;66364;52.622;7.746;2023-04-25T03:00:51;6.20;99.90
77305;DHT22;66364;52.622;7.746;2023-04-25T03:02:52;6.00;99.90
77305;DHT22;66364;52.622;7.746;2023-04-25T03:04:53;6.00;99.90
77305;DHT22;66364;52.622;7.746;2023-04-25T03:06:54;6.00;99.90
77305;DHT22;66364;52.622;7.746;2023-04-25T03:08:57;6.30;99.90
77305;DHT22;66364;52.622;7.746;2023-04-25T03:11:02;6.00;99.90
77305;DHT22;66364;52.622;7.746;2023-04-25T03:13:04;6.30;99.90
77305;DHT22;66364;52.622;7.746;2023-04-25T03:15:08;6.00;99.90
77305;DHT22;66364;52.622;7.746;2023-04-25T03:17:10;6.20;99.90
77305;DHT22;66364;52.622;7.746;2023-04-25T03:19:13;5.80;99.90
77305;DHT22;66364;52.622;7.746;2023-04-25T03:21:16;6.20;99.90
77305;DHT22;66364;52.622;7.746;2023-04-25T03:23:22;6.10;99.90
77305;DHT22;66364;52.622;7.746;2023-04-25T03:25:25;5.90;99.90
77305;DHT22;66364;52.622;7.746;2023-04-25T03:27:28;5.90;99.90
77305;DHT22;66364;52.622;7.746;2023-04-25T03:29:30;6.20;99.90
77305;DHT22;66364;52.622;7.746;2023-04-25T03:31:33;6.10;99.90
77305;DHT22;66364;52.622;7.746;2023-04-25T03:33:36;5.70;99.90
77305;DHT22;66364;52.622;7.746;2023-04-25T03:35:39;6.20;99.90
77305;DHT22;66364;52.622;7.746;2023-04-25T03:37:42;6.10;99.90
77305;DHT22;66364;52.622;7.746;2023-04-25T03:39:44;5.70;99.90
77305;DHT22;66364;52.622;7.746;2023-04-25T03:41:49;5.80;99.90
77305;DHT22;66364;52.622;7.746;2023-04-25T03:43:52;5.70;99.90
77305;DHT22;66364;52.622;7.746;2023-04-25T03:45:55;5.70;99.90
77305;DHT22;66364;52.622;7.746;2023-04-25T03:47:57;5.70;99.90
77305;DHT22;66364;52.622;7.746;2023-04-25T03:50:00;5.70;99.90
77305;DHT22;66364;52.622;7.746;2023-04-25T03:52:03;6.20;99.90
77305;DHT22;66364;52.622;7.746;2023-04-25T03:54:08;5.90;99.90
77305;DHT22;66364;52.622;7.746;2023-04-25T03:56:11;6.20;99.90
77305;DHT22;66364;52.622;7.746;2023-04-25T03:58:14;5.80;99.90
77305;DHT22;66364;52.622;7.746;2023-04-25T04:00:16;5.80;99.90
77305;DHT22;66364;52.622;7.746;2023-04-25T04:02:19;6.00;99.90
77305;DHT22;66364;52.622;7.746;2023-04-25T04:04:25;6.00;99.90
77305;DHT22;66364;52.622;7.746;2023-04-25T04:06:28;5.80;99.90
77305;DHT22;66364;52.622;7.746;2023-04-25T04:08:31;5.70;99.90
77305;DHT22;66364;52.622;7.746;2023-04-25T04:10:34;5.70;99.90
77305;DHT22;66364;52.622;7.746;2023-04-25T04:12:42;5.90;99.90
77305;DHT22;66364;52.622;7.746;2023-04-25T04:14:43;6.00;99.90
77305;DHT22;66364;52.622;7.746;2023-04-25T04:16:43;5.90;99.90
77305;DHT22;66364;52.622;7.746;2023-04-25T04:18:45;5.70;99.90
77305;DHT22;66364;52.622;7.746;2023-04-25T04:20:47;5.70;99.90
77305;DHT22;66364;52.622;7.746;2023-04-25T04:22:48;5.60;99.90
77305;DHT22;66364;52.622;7.746;2023-04-25T04:24:49;5.60;99.90
77305;DHT22;66364;52.622;7.746;2023-04-25T04:26:51;5.70;99.90
77305;DHT22;66364;52.622;7.746;2023-04-25T04:28:52;5.50;99.90
77305;DHT22;66364;52.622;7.746;2023-04-25T04:30:54;5.50;99.90
77305;DHT22;66364;52.622;7.746;2023-04-25T04:32:56;5.40;99.90
77305;DHT22;66364;52.622;7.746;2023-04-25T04:34:57;5.80;99.90
77305;DHT22;66364;52.622;7.746;2023-04-25T04:36:57;6.00;99.90
77305;DHT22;66364;52.622;7.746;2023-04-25T04:38:58;5.60;99.90
77305;DHT22;66364;52.622;7.746;2023-04-25T04:40:59;5.70;99.90
77305;DHT22;66364;52.622;7.746;2023-04-25T04:43:01;6.00;99.90
77305;DHT22;66364;52.622;7.746;2023-04-25T04:45:02;6.00;99.90
77305;DHT22;66364;52.622;7.746;2023-04-25T04:47:04;5.80;99.90
77305;DHT22;66364;52.622;7.746;2023-04-25T04:49:09;5.70;99.90
77305;DHT22;66364;52.622;7.746;2023-04-25T04:51:10;5.70;99.90
77305;DHT22;66364;52.622;7.746;2023-04-25T04:53:12;5.70;99.90
77305;DHT22;66364;52.622;7.746;2023-04-25T04:55:13;5.70;99.90
77305;DHT22;66364;52.622;7.746;2023-04-25T04:57:14;6.00;99.90
77305;DHT22;66364;52.622;7.746;2023-04-25T04:59:15;5.70;99.90
77305;DHT22;66364;52.622;7.746;2023-04-25T05:01:16;5.90;99.90
77305;DHT22;66364;52.622;7.746;2023-04-25T05:03:26;5.90;99.90
77305;DHT22;66364;52.622;7.746;2023-04-25T05:05:27;5.70;99.90
77305;DHT22;66364;52.622;7.746;2023-04-25T05:07:28;5.70;99.90
77305;DHT22;66364;52.622;7.746;2023-04-25T05:09:30;6.00;99.90
77305;DHT22;66364;52.622;7.746;2023-04-25T05:11:32;6.00;99.90
77305;DHT22;66364;52.622;7.746;2023-04-25T05:13:46;5.70;99.90
77305;DHT22;66364;52.622;7.746;2023-04-25T05:15:47;5.90;99.90
77305;DHT22;66364;52.622;7.746;2023-04-25T05:17:51;6.00;99.90
77305;DHT22;66364;52.622;7.746;2023-04-25T05:19:52;5.90;99.90
77305;DHT22;66364;52.622;7.746;2023-04-25T05:21:53;6.00;99.90
77305;DHT22;66364;52.622;7.746;2023-04-25T05:23:55;6.20;99.90
77305;DHT22;66364;52.622;7.746;2023-04-25T05:25:56;6.00;99.90
77305;DHT22;66364;52.622;7.746;2023-04-25T05:28:03;6.00;99.90
77305;DHT22;66364;52.622;7.746;2023-04-25T05:30:05;6.30;99.90
77305;DHT22;66364;52.622;7.746;2023-04-25T05:32:26;6.50;99.90
77305;DHT22;66364;52.622;7.746;2023-04-25T05:34:30;5.80;99.90
77305;DHT22;66364;52.622;7.746;2023-04-25T05:36:31;6.60;99.90
77305;DHT22;66364;52.622;7.746;2023-04-25T05:38:32;6.60;99.90
77305;DHT22;66364;52.622;7.746;2023-04-25T05:40:42;6.60;99.90
77305;DHT22;66364;52.622;7.746;2023-04-25T05:42:43;6.70;99.90
77305;DHT22;66364;52.622;7.746;2023-04-25T05:44:44;6.90;99.90
77305;DHT22;66364;52.622;7.746;2023-04-25T05:46:45;6.80;99.90
77305;DHT22;66364;52.622;7.746;2023-04-25T05:48:46;6.90;99.90
77305;DHT22;66364;52.622;7.746;2023-04-25T05:50:47;6.80;99.90
77305;DHT22;66364;52.622;7.746;2023-04-25T05:52:49;6.90;99.90
77305;DHT22;66364;52.622;7.746;2023-04-25T05:54:50;6.90;99.90
77305;DHT22;66364;52.622;7.746;2023-04-25T05:56:51;6.90;99.90
77305;DHT22;66364;52.622;7.746;2023-04-25T05:58:52;6.70;99.90
77305;DHT22;66364;52.622;7.746;2023-04-25T06:00:53;6.60;99.90
77305;DHT22;66364;52.622;7.746;2023-04-25T06:02:53;6.90;99.90
77305;DHT22;66364;52.622;7.746;2023-04-25T06:04:54;6.70;99.90
77305;DHT22;66364;52.622;7.746;2023-04-25T06:06:55;6.70;99.90
77305;DHT22;66364;52.622;7.746;2023-04-25T06:08:56;6.70;99.90
77305;DHT22;66364;52.622;7.746;2023-04-25T06:10:57;6.50;99.90
77305;DHT22;66364;52.622;7.746;2023-04-25T06:12:58;6.70;99.90
77305;DHT22;66364;52.622;7.746;2023-04-25T06:15:00;6.30;99.90
77305;DHT22;66364;52.622;7.746;2023-04-25T06:17:02;6.90;99.90
77305;DHT22;66364;52.622;7.746;2023-04-25T06:19:03;6.70;99.90
77305;DHT22;66364;52.622;7.746;2023-04-25T06:21:04;6.80;99.90
77305;DHT22;66364;52.622;7.746;2023-04-25T06:23:05;6.90;99.90
77305;DHT22;66364;52.622;7.746;2023-04-25T06:25:06;6.80;99.90
77305;DHT22;66364;52.622;7.746;2023-04-25T06:27:13;6.90;99.90
77305;DHT22;66364;52.622;7.746;2023-04-25T06:29:14;7.10;99.90
77305;DHT22;66364;52.622;7.746;2023-04-25T06:31:15;7.10;99.90
77305;DHT22;66364;52.622;7.746;2023-04-25T06:33:15;7.00;99.90
77305;DHT22;66364;52.622;7.746;2023-04-25T06:35:16;7.20;99.90
77305;DHT22;66364;52.622;7.746;2023-04-25T06:37:17;7.30;99.90
77305;DHT22;66364;52.622;7.746;2023-04-25T06:39:18;7.30;99.90
77305;DHT22;66364;52.622;7.746;2023-04-25T06:41:20;7.60;99.90
77305;DHT22;66364;52.622;7.746;2023-04-25T06:43:20;7.60;99.90
77305;DHT22;66364;52.622;7.746;2023-04-25T06:45:22;7.50;99.90
77305;DHT22;66364;52.622;7.746;2023-04-25T06:47:24;7.30;99.90
77305;DHT22;66364;52.622;7.746;2023-04-25T06:49:25;7.50;99.90
77305;DHT22;66364;52.622;7.746;2023-04-25T06:51:25;7.80;99.90
77305;DHT22;66364;52.622;7.746;2023-04-25T06:53:29;7.80;99.90
77305;DHT22;66364;52.622;7.746;2023-04-25T06:55:30;8.00;99.90
77305;DHT22;66364;52.622;7.746;2023-04-25T06:57:31;8.20;99.90
77305;DHT22;66364;52.622;7.746;2023-04-25T06:59:32;7.80;99.90
77305;DHT22;66364;52.622;7.746;2023-04-25T07:01:35;7.80;99.90
77305;DHT22;66364;52.622;7.746;2023-04-25T07:03:36;7.70;99.90
77305;DHT22;66364;52.622;7.746;2023-04-25T07:05:36;8.10;99.90
77305;DHT22;66364;52.622;7.746;2023-04-25T07:07:37;8.10;99.90
77305;DHT22;66364;52.622;7.746;2023-04-25T07:09:39;8.20;99.90
77305;DHT22;66364;52.622;7.746;2023-04-25T07:11:41;8.10;99.90
77305;DHT22;66364;52.622;7.746;2023-04-25T07:13:42;8.10;99.90
77305;DHT22;66364;52.622;7.746;2023-04-25T07:15:43;8.00;99.90
77305;DHT22;66364;52.622;7.746;2023-04-25T07:17:44;8.20;99.90
77305;DHT22;66364;52.622;7.746;2023-04-25T07:19:45;8.10;99.90
77305;DHT22;66364;52.622;7.746;2023-04-25T07:21:45;8.10;99.90
77305;DHT22;66364;52.622;7.746;2023-04-25T07:23:46;8.10;99.90
77305;DHT22;66364;52.622;7.746;2023-04-25T07:25:47;7.60;99.90
77305;DHT22;66364;52.622;7.746;2023-04-25T07:27:48;8.10;99.90
77305;DHT22;66364;52.622;7.746;2023-04-25T07:29:49;8.10;99.90
77305;DHT22;66364;52.622;7.746;2023-04-25T07:31:50;8.20;99.90
77305;DHT22;66364;52.622;7.746;2023-04-25T07:33:51;8.20;99.90
77305;DHT22;66364;52.622;7.746;2023-04-25T07:35:52;7.90;99.90
77305;DHT22;66364;52.622;7.746;2023-04-25T07:37:53;7.90;99.90
77305;DHT22;66364;52.622;7.746;2023-04-25T07:39:54;7.90;99.90
77305;DHT22;66364;52.622;7.746;2023-04-25T07:41:55;8.10;99.90
77305;DHT22;66364;52.622;7.746;2023-04-25T07:43:56;8.20;99.90
77305;DHT22;66364;52.622;7.746;2023-04-25T07:45:57;8.60;99.90
77305;DHT22;66364;52.622;7.746;2023-04-25T07:47:58;8.80;99.90
77305;DHT22;66364;52.622;7.746;2023-04-25T07:49:59;9.10;99.90
77305;DHT22;66364;52.622;7.746;2023-04-25T07:52:00;9.00;99.90
77305;DHT22;66364;52.622;7.746;2023-04-25T07:54:07;8.90;99.90
77305;DHT22;66364;52.622;7.746;2023-04-25T07:56:07;9.40;99.90
77305;DHT22;66364;52.622;7.746;2023-04-25T07:58:10;9.50;99.90
77305;DHT22;66364;52.622;7.746;2023-04-25T08:00:15;9.60;99.90
77305;DHT22;66364;52.622;7.746;2023-04-25T08:02:41;8.90;99.90
77305;DHT22;66364;52.622;7.746;2023-04-25T08:04:42;8.80;99.90
77305;DHT22;66364;52.622;7.746;2023-04-25T08:06:43;8.50;99.90
77305;DHT22;66364;52.622;7.746;2023-04-25T08:08:45;8.50;99.90
77305;DHT22;66364;52.622;7.746;2023-04-25T08:10:46;8.50;99.90
77305;DHT22;66364;52.622;7.746;2023-04-25T08:12:47;8.50;99.90
77305;DHT22;66364;52.622;7.746;2023-04-25T08:14:48;8.40;99.90
77305;DHT22;66364;52.622;7.746;2023-04-25T08:16:48;8.50;99.90
77305;DHT22;66364;52.622;7.746;2023-04-25T08:18:53;8.60;99.90
77305;DHT22;66364;52.622;7.746;2023-04-25T08:20:55;8.80;99.90
77305;DHT22;66364;52.622;7.746;2023-04-25T08:22:55;8.70;99.90
77305;DHT22;66364;52.622;7.746;2023-04-25T08:24:56;8.80;99.90
77305;DHT22;66364;52.622;7.746;2023-04-25T08:26:58;8.80;99.90
77305;DHT22;66364;52.622;7.746;2023-04-25T08:29:00;8.90;97.30
77305;DHT22;66364;52.622;7.746;2023-04-25T08:31:00;8.90;96.40
77305;DHT22;66364;52.622;7.746;2023-04-25T08:33:02;8.60;93.50
77305;DHT22;66364;52.622;7.746;2023-04-25T08:35:03;8.80;94.70
77305;DHT22;66364;52.622;7.746;2023-04-25T08:37:04;9.30;95.10
77305;DHT22;66364;52.622;7.746;2023-04-25T08:39:05;9.70;96.60
77305;DHT22;66364;52.622;7.746;2023-04-25T08:41:06;10.10;90.50
77305;DHT22;66364;52.622;7.746;2023-04-25T08:43:07;10.30;90.20
77305;DHT22;66364;52.622;7.746;2023-04-25T08:45:09;9.90;80.50
77305;DHT22;66364;52.622;7.746;2023-04-25T08:47:19;10.30;86.00
77305;DHT22;66364;52.622;7.746;2023-04-25T08:49:21;10.00;84.10
77305;DHT22;66364;52.622;7.746;2023-04-25T08:51:23;9.70;83.70
77305;DHT22;66364;52.622;7.746;2023-04-25T08:53:31;10.00;78.60
77305;DHT22;66364;52.622;7.746;2023-04-25T08:55:32;10.30;77.90
77305;DHT22;66364;52.622;7.746;2023-04-25T08:57:34;11.20;77.20
77305;DHT22;66364;52.622;7.746;2023-04-25T08:59:35;11.00;61.70
77305;DHT22;66364;52.622;7.746;2023-04-25T09:01:36;11.40;75.30
77305;DHT22;66364;52.622;7.746;2023-04-25T09:03:37;11.20;66.60
77305;DHT22;66364;52.622;7.746;2023-04-25T09:05:40;10.50;70.20
77305;DHT22;66364;52.622;7.746;2023-04-25T09:07:41;10.20;71.30
77305;DHT22;66364;52.622;7.746;2023-04-25T09:09:42;9.50;71.50
77305;DHT22;66364;52.622;7.746;2023-04-25T09:11:54;9.10;78.60
77305;DHT22;66364;52.622;7.746;2023-04-25T09:14:16;8.90;79.40
77305;DHT22;66364;52.622;7.746;2023-04-25T09:16:17;8.90;80.40
77305;DHT22;66364;52.622;7.746;2023-04-25T09:18:30;8.60;87.90
77305;DHT22;66364;52.622;7.746;2023-04-25T09:20:54;8.10;91.50
77305;DHT22;66364;52.622;7.746;2023-04-25T09:23:03;7.50;99.90
77305;DHT22;66364;52.622;7.746;2023-04-25T09:25:10;7.00;99.90
77305;DHT22;66364;52.622;7.746;2023-04-25T09:27:18;6.90;99.90
77305;DHT22;66364;52.622;7.746;2023-04-25T09:29:16;7.00;99.90
77305;DHT22;66364;52.622;7.746;2023-04-25T09:31:22;6.90;99.90
77305;DHT22;66364;52.622;7.746;2023-04-25T09:33:33;7.30;99.90
77305;DHT22;66364;52.622;7.746;2023-04-25T09:35:40;7.30;99.90
77305;DHT22;66364;52.622;7.746;2023-04-25T09:37:41;7.20;99.90
77305;DHT22;66364;52.622;7.746;2023-04-25T09:39:44;7.30;99.90
77305;DHT22;66364;52.622;7.746;2023-04-25T09:41:45;7.30;99.90
77305;DHT22;66364;52.622;7.746;2023-04-25T09:43:48;7.70;99.90
77305;DHT22;66364;52.622;7.746;2023-04-25T09:45:53;7.80;99.90
77305;DHT22;66364;52.622;7.746;2023-04-25T09:48:03;8.00;99.90
77305;DHT22;66364;52.622;7.746;2023-04-25T09:50:02;8.20;99.90
77305;DHT22;66364;52.622;7.746;2023-04-25T09:52:03;9.20;99.90
77305;DHT22;66364;52.622;7.746;2023-04-25T09:54:04;10.20;99.90
77305;DHT22;66364;52.622;7.746;2023-04-25T09:56:07;11.30;99.90
77305;DHT22;66364;52.622;7.746;2023-04-25T09:58:10;11.40;81.60
77305;DHT22;66364;52.622;7.746;2023-04-25T10:00:12;10.90;82.90
77305;DHT22;66364;52.622;7.746;2023-04-25T10:02:16;11.00;70.70
77305;DHT22;66364;52.622;7.746;2023-04-25T10:04:19;11.40;70.90
77305;DHT22;66364;52.622;7.746;2023-04-25T10:06:22;11.50;72.80
77305;DHT22;66364;52.622;7.746;2023-04-25T10:08:38;11.80;79.30
77305;DHT22;66364;52.622;7.746;2023-04-25T10:10:40;11.60;69.20
77305;DHT22;66364;52.622;7.746;2023-04-25T10:12:41;11.40;65.30
77305;DHT22;66364;52.622;7.746;2023-04-25T10:14:43;10.70;73.00
77305;DHT22;66364;52.622;7.746;2023-04-25T10:16:45;10.20;75.10
77305;DHT22;66364;52.622;7.746;2023-04-25T10:18:48;10.10;76.20
77305;DHT22;66364;52.622;7.746;2023-04-25T10:20:50;9.70;74.30
77305;DHT22;66364;52.622;7.746;2023-04-25T10:23:06;9.20;81.30
77305;DHT22;66364;52.622;7.746;2023-04-25T10:25:07;8.90;84.80
77305;DHT22;66364;52.622;7.746;2023-04-25T10:27:10;9.20;88.10
77305;DHT22;66364;52.622;7.746;2023-04-25T10:29:11;9.20;89.70
77305;DHT22;66364;52.622;7.746;2023-04-25T10:31:14;9.40;84.70
77305;DHT22;66364;52.622;7.746;2023-04-25T10:33:17;9.50;81.30
77305;DHT22;66364;52.622;7.746;2023-04-25T10:35:25;9.70;81.70
77305;DHT22;66364;52.622;7.746;2023-04-25T10:37:26;9.40;74.60
77305;DHT22;66364;52.622;7.746;2023-04-25T10:39:27;9.20;79.20
77305;DHT22;66364;52.622;7.746;2023-04-25T10:41:28;9.20;79.50
77305;DHT22;66364;52.622;7.746;2023-04-25T10:46:00;9.80;76.30
77305;DHT22;66364;52.622;7.746;2023-04-25T10:48:01;9.50;75.00
77305;DHT22;66364;52.622;7.746;2023-04-25T10:50:10;9.90;70.00
77305;DHT22;66364;52.622;7.746;2023-04-25T10:56:58;9.90;71.80
77305;DHT22;66364;52.622;7.746;2023-04-25T10:59:16;10.30;64.00
77305;DHT22;66364;52.622;7.746;2023-04-25T11:01:24;10.90;65.00
77305;DHT22;66364;52.622;7.746;2023-04-25T11:03:25;10.60;63.20
77305;DHT22;66364;52.622;7.746;2023-04-25T11:05:32;10.50;57.00
77305;DHT22;66364;52.622;7.746;2023-04-25T11:07:49;10.50;60.00
77305;DHT22;66364;52.622;7.746;2023-04-25T11:09:47;10.90;59.20
77305;DHT22;66364;52.622;7.746;2023-04-25T11:11:55;11.90;57.20
77305;DHT22;66364;52.622;7.746;2023-04-25T11:13:56;12.00;53.90
77305;DHT22;66364;52.622;7.746;2023-04-25T11:15:57;12.10;50.30
77305;DHT22;66364;52.622;7.746;2023-04-25T11:17:58;11.70;45.70
77305;DHT22;66364;52.622;7.746;2023-04-25T11:20:00;11.70;45.60
77305;DHT22;66364;52.622;7.746;2023-04-25T11:22:02;11.80;50.70
77305;DHT22;66364;52.622;7.746;2023-04-25T11:24:04;11.70;46.10
77305;DHT22;66364;52.622;7.746;2023-04-25T11:26:05;11.60;43.10
77305;DHT22;66364;52.622;7.746;2023-04-25T11:28:06;11.40;43.60
77305;DHT22;66364;52.622;7.746;2023-04-25T11:30:14;11.80;45.90
77305;DHT22;66364;52.622;7.746;2023-04-25T11:32:17;12.30;41.20
77305;DHT22;66364;52.622;7.746;2023-04-25T11:34:19;12.10;46.80
77305;DHT22;66364;52.622;7.746;2023-04-25T11:36:22;12.30;43.90
77305;DHT22;66364;52.622;7.746;2023-04-25T11:38:25;12.20;43.80
77305;DHT22;66364;52.622;7.746;2023-04-25T11:40:26;11.80;48.10
77305;DHT22;66364;52.622;7.746;2023-04-25T11:42:27;12.30;48.00
77305;DHT22;66364;52.622;7.746;2023-04-25T11:44:30;11.90;42.30
77305;DHT22;66364;52.622;7.746;2023-04-25T11:46:36;11.60;43.10
77305;DHT22;66364;52.622;7.746;2023-04-25T11:48:41;11.60;45.20
77305;DHT22;66364;52.622;7.746;2023-04-25T11:50:43;11.40;49.20
77305;DHT22;66364;52.622;7.746;2023-04-25T11:52:46;10.50;57.70
77305;DHT22;66364;52.622;7.746;2023-04-25T11:54:47;9.70;62.00
77305;DHT22;66364;52.622;7.746;2023-04-25T11:56:59;9.30;63.10
77305;DHT22;66364;52.622;7.746;2023-04-25T11:59:11;9.50;63.50
77305;DHT22;66364;52.622;7.746;2023-04-25T12:01:25;9.40;60.80
77305;DHT22;66364;52.622;7.746;2023-04-25T12:03:32;9.20;61.80
77305;DHT22;66364;52.622;7.746;2023-04-25T12:05:42;9.10;63.80
77305;DHT22;66364;52.622;7.746;2023-04-25T12:07:51;9.20;66.00
77305;DHT22;66364;52.622;7.746;2023-04-25T12:09:52;9.40;66.80
77305;DHT22;66364;52.622;7.746;2023-04-25T12:11:54;9.10;67.70
77305;DHT22;66364;52.622;7.746;2023-04-25T12:14:04;9.30;70.40
77305;DHT22;66364;52.622;7.746;2023-04-25T12:16:06;8.80;69.50
77305;DHT22;66364;52.622;7.746;2023-04-25T12:18:07;8.90;71.90
77305;DHT22;66364;52.622;7.746;2023-04-25T12:20:10;8.90;71.00
77305;DHT22;66364;52.622;7.746;2023-04-25T12:22:23;9.20;76.40
77305;DHT22;66364;52.622;7.746;2023-04-25T12:24:26;9.20;70.30
77305;DHT22;66364;52.622;7.746;2023-04-25T12:26:45;9.80;74.50
77305;DHT22;66364;52.622;7.746;2023-04-25T12:28:32;10.20;74.30
77305;DHT22;66364;52.622;7.746;2023-04-25T12:30:54;10.40;68.90
77305;DHT22;66364;52.622;7.746;2023-04-25T12:32:56;10.70;62.50
77305;DHT22;66364;52.622;7.746;2023-04-25T12:34:56;10.90;62.30
77305;DHT22;66364;52.622;7.746;2023-04-25T12:36:58;11.10;63.10
77305;DHT22;66364;52.622;7.746;2023-04-25T12:38:59;11.80;63.00
77305;DHT22;66364;52.622;7.746;2023-04-25T12:41:02;12.30;54.60
77305;DHT22;66364;52.622;7.746;2023-04-25T12:43:03;12.30;55.70
77305;DHT22;66364;52.622;7.746;2023-04-25T12:45:04;12.00;53.70
77305;DHT22;66364;52.622;7.746;2023-04-25T12:47:09;11.80;57.00
77305;DHT22;66364;52.622;7.746;2023-04-25T12:49:10;11.70;56.40
77305;DHT22;66364;52.622;7.746;2023-04-25T12:51:24;11.40;55.10
77305;DHT22;66364;52.622;7.746;2023-04-25T12:53:25;10.90;61.90
77305;DHT22;66364;52.622;7.746;2023-04-25T12:55:26;10.40;58.90
77305;DHT22;66364;52.622;7.746;2023-04-25T12:57:27;10.40;58.30
77305;DHT22;66364;52.622;7.746;2023-04-25T12:59:28;10.00;63.80
77305;DHT22;66364;52.622;7.746;2023-04-25T13:01:29;9.70;67.10
77305;DHT22;66364;52.622;7.746;2023-04-25T13:03:30;9.60;72.00
77305;DHT22;66364;52.622;7.746;2023-04-25T13:05:31;9.50;66.40
77305;DHT22;66364;52.622;7.746;2023-04-25T13:07:52;9.40;73.40
77305;DHT22;66364;52.622;7.746;2023-04-25T13:09:53;8.90;83.40
77305;DHT22;66364;52.622;7.746;2023-04-25T13:11:54;8.50;83.70
77305;DHT22;66364;52.622;7.746;2023-04-25T13:13:55;8.50;83.80